createdAt,value
2016-11-19T00:00:39.489Z,1000.89
2016-11-19T00:01:20.740Z,1000.84
2016-11-19T00:02:02.130Z,1000.82
2016-11-19T00:02:43.451Z,1000.85
2016-11-19T00:03:24.636Z,1000.85
2016-11-19T00:04:05.553Z,1000.84
2016-11-19T00:04:46.368Z,1000.87
2016-11-19T00:05:27.670Z,1000.85
2016-11-19T00:06:08.640Z,1000.82
2016-11-19T00:06:49.685Z,1000.83
2016-11-19T00:07:30.965Z,1000.82
2016-11-19T00:08:11.997Z,1000.85
2016-11-19T00:08:52.825Z,1000.77
2016-11-19T00:09:33.851Z,1000.79
2016-11-19T00:10:15.116Z,1000.8
2016-11-19T00:10:55.995Z,1000.78
2016-11-19T00:11:37.042Z,1000.79
2016-11-19T00:12:18.026Z,1000.81
2016-11-19T00:12:59.195Z,1000.83
2016-11-19T00:13:40.517Z,1000.83
2016-11-19T00:14:21.535Z,1000.86
2016-11-19T00:15:02.860Z,1000.82
2016-11-19T00:15:44.079Z,1000.86
2016-11-19T00:16:25.228Z,1000.88
2016-11-19T00:17:06.444Z,1000.86
2016-11-19T00:17:47.610Z,1000.85
2016-11-19T00:18:28.969Z,1000.9
2016-11-19T00:19:10.041Z,1000.87
2016-11-19T00:19:51.254Z,1000.85
2016-11-19T00:20:32.295Z,1000.86
2016-11-19T00:21:13.455Z,1000.84
2016-11-19T00:21:54.647Z,1000.88
2016-11-19T00:22:35.734Z,1000.88
2016-11-19T00:23:16.760Z,1000.85
2016-11-19T00:23:57.805Z,1000.86
2016-11-19T00:24:38.818Z,1000.86
2016-11-19T00:25:20.134Z,1000.82
2016-11-19T00:26:01.993Z,1000.84
2016-11-19T00:26:42.945Z,1000.84
2016-11-19T00:27:24.060Z,1000.82
2016-11-19T00:28:04.935Z,1000.87
2016-11-19T00:28:48.579Z,1000.87
2016-11-19T00:29:29.634Z,1000.85
2016-11-19T00:30:10.778Z,1000.89
2016-11-19T00:30:52.417Z,1000.88
2016-11-19T00:31:33.373Z,1000.9
2016-11-19T00:32:15.670Z,1000.92
2016-11-19T00:32:59.378Z,1000.95
2016-11-19T00:33:50.908Z,1000.92
2016-11-19T00:34:31.912Z,1000.91
2016-11-19T00:35:14.441Z,1000.87
2016-11-19T00:35:54.806Z,1000.84
2016-11-19T00:36:35.969Z,1000.9
2016-11-19T00:37:17.709Z,1000.88
2016-11-19T00:37:58.479Z,1000.87
2016-11-19T00:38:39.326Z,1000.91
2016-11-19T00:39:20.172Z,1000.92
2016-11-19T00:40:01.221Z,1000.9
2016-11-19T00:40:42.282Z,1000.88
2016-11-19T00:41:23.475Z,1000.88
2016-11-19T00:42:04.297Z,1000.88
2016-11-19T00:42:45.214Z,1000.91
2016-11-19T00:43:25.943Z,1000.9
2016-11-19T00:44:06.902Z,1000.89
2016-11-19T00:44:48.067Z,1000.89
2016-11-19T00:45:29.062Z,1000.92
2016-11-19T00:46:10.251Z,1000.9
2016-11-19T00:46:53.955Z,1000.92
2016-11-19T00:47:43.589Z,1000.93
2016-11-19T00:48:26.708Z,1000.89
2016-11-19T00:49:09.240Z,1000.86
2016-11-19T00:51:12.013Z,1000.88
2016-11-19T00:51:53.234Z,1000.86
2016-11-19T00:52:37.697Z,1000.85
2016-11-19T00:53:22.104Z,1000.85
2016-11-19T00:54:03.072Z,1000.79
2016-11-19T00:54:44.334Z,1000.83
2016-11-19T00:55:25.346Z,1000.78
2016-11-19T00:56:06.411Z,1000.81
2016-11-19T00:56:47.463Z,1000.77
2016-11-19T00:57:28.493Z,1000.69
2016-11-19T00:58:09.361Z,1000.73
2016-11-19T00:58:50.496Z,1000.75
2016-11-19T00:59:31.549Z,1000.71
2016-11-19T01:00:13.684Z,1000.72
2016-11-19T01:02:32.781Z,1000.75
2016-11-19T01:03:15.499Z,1000.7
2016-11-19T01:03:57.474Z,1000.75
2016-11-19T01:04:39.788Z,1000.72
2016-11-19T01:05:20.822Z,1000.74
2016-11-19T01:06:02.707Z,1000.71
2016-11-19T01:06:43.769Z,1000.74
2016-11-19T01:07:24.829Z,1000.75
2016-11-19T01:08:05.838Z,1000.73
2016-11-19T01:08:47.603Z,1000.71
2016-11-19T01:09:30.285Z,1000.69
2016-11-19T01:10:10.499Z,1000.72
2016-11-19T01:10:52.975Z,1000.76
2016-11-19T01:11:34.084Z,1000.71
2016-11-19T01:12:15.009Z,1000.73
2016-11-19T01:12:56.015Z,1000.71
2016-11-19T01:13:37.070Z,1000.67
2016-11-19T01:14:18.177Z,1000.71
2016-11-19T01:14:59.835Z,1000.69
2016-11-19T01:15:41.669Z,1000.69
2016-11-19T01:16:23.431Z,1000.72
2016-11-19T01:17:05.460Z,1000.71
2016-11-19T01:17:47.410Z,1000.82
2016-11-19T01:18:28.412Z,1000.75
2016-11-19T01:19:09.625Z,1000.79
2016-11-19T01:19:51.543Z,1000.73
2016-11-19T01:20:32.552Z,1000.79
2016-11-19T01:21:13.278Z,1000.75
2016-11-19T01:21:54.328Z,1000.8
2016-11-19T01:22:35.429Z,1000.75
2016-11-19T01:23:16.392Z,1000.76
2016-11-19T01:23:57.602Z,1000.75
2016-11-19T01:24:38.784Z,1000.8
2016-11-19T01:26:31.603Z,1000.77
2016-11-19T01:28:24.842Z,1000.75
2016-11-19T01:29:05.763Z,1000.81
2016-11-19T01:29:46.683Z,1000.79
2016-11-19T01:30:27.602Z,1000.8
2016-11-19T01:31:08.464Z,1000.82
2016-11-19T01:31:49.342Z,1000.81
2016-11-19T01:32:30.137Z,1000.84
2016-11-19T01:33:11.052Z,1000.86
2016-11-19T01:33:51.893Z,1000.91
2016-11-19T01:34:32.561Z,1000.89
2016-11-19T01:35:13.318Z,1000.92
2016-11-19T01:35:54.159Z,1000.94
2016-11-19T01:36:35.093Z,1000.94
2016-11-19T01:37:16.187Z,1000.95
2016-11-19T01:37:57.264Z,1000.96
2016-11-19T01:38:38.318Z,1000.94
2016-11-19T01:39:19.608Z,1000.92
2016-11-19T01:40:00.475Z,1000.93
2016-11-19T01:40:41.573Z,1000.96
2016-11-19T01:41:22.496Z,1000.93
2016-11-19T01:42:03.560Z,1000.91
2016-11-19T01:42:44.575Z,1000.91
2016-11-19T01:43:25.640Z,1000.89
2016-11-19T01:44:09.315Z,1000.9
2016-11-19T01:44:50.838Z,1000.87
2016-11-19T01:45:31.623Z,1000.85
2016-11-19T01:46:14.099Z,1000.89
2016-11-19T01:46:54.883Z,1000.88
2016-11-19T01:47:35.854Z,1000.86
2016-11-19T01:48:16.773Z,1000.88
2016-11-19T01:48:57.584Z,1000.9
2016-11-19T01:49:38.343Z,1000.93
2016-11-19T01:50:19.393Z,1000.9
2016-11-19T01:51:00.409Z,1000.9
2016-11-19T01:51:41.608Z,1000.83
2016-11-19T01:52:22.426Z,1000.86
2016-11-19T01:53:03.328Z,1000.82
2016-11-19T01:53:44.279Z,1000.77
2016-11-19T01:54:25.151Z,1000.78
2016-11-19T01:55:06.009Z,1000.72
2016-11-19T01:55:46.877Z,1000.68
2016-11-19T01:56:28.837Z,1000.69
2016-11-19T01:57:09.720Z,1000.68
2016-11-19T01:57:50.680Z,1000.69
2016-11-19T01:58:31.537Z,1000.66
2016-11-19T01:59:12.570Z,1000.7
2016-11-19T01:59:53.738Z,1000.68
2016-11-19T02:00:35.185Z,1000.65
2016-11-19T02:01:16.358Z,1000.67
2016-11-19T02:01:57.420Z,1000.68
2016-11-19T02:02:39.339Z,1000.7
2016-11-19T02:03:20.839Z,1000.78
2016-11-19T02:04:02.154Z,1000.71
2016-11-19T02:04:43.511Z,1000.73
2016-11-19T02:05:24.387Z,1000.68
2016-11-19T02:06:06.088Z,1000.71
2016-11-19T02:06:47.010Z,1000.68
2016-11-19T02:07:28.256Z,1000.72
2016-11-19T02:08:09.486Z,1000.7
2016-11-19T02:08:50.630Z,1000.71
2016-11-19T02:09:31.314Z,1000.72
2016-11-19T02:10:12.364Z,1000.68
2016-11-19T02:10:53.600Z,1000.67
2016-11-19T02:11:34.723Z,1000.65
2016-11-19T02:12:15.480Z,1000.68
2016-11-19T02:12:56.239Z,1000.72
2016-11-19T02:13:37.087Z,1000.68
2016-11-19T02:14:18.051Z,1000.71
2016-11-19T02:14:59.247Z,1000.72
2016-11-19T02:15:39.958Z,1000.74
2016-11-19T02:16:20.788Z,1000.66
2016-11-19T02:17:01.700Z,1000.72
2016-11-19T02:17:42.483Z,1000.68
2016-11-19T02:18:23.207Z,1000.68
2016-11-19T02:19:04.039Z,1000.67
2016-11-19T02:19:44.773Z,1000.64
2016-11-19T02:20:25.611Z,1000.67
2016-11-19T02:21:06.348Z,1000.67
2016-11-19T02:21:47.021Z,1000.65
2016-11-19T02:22:27.853Z,1000.66
2016-11-19T02:23:08.650Z,1000.66
2016-11-19T02:23:49.607Z,1000.66
2016-11-19T02:24:31.016Z,1000.61
2016-11-19T02:25:12.347Z,1000.59
2016-11-19T02:25:53.210Z,1000.61
2016-11-19T02:26:34.466Z,1000.61
2016-11-19T02:27:15.524Z,1000.61
2016-11-19T02:27:56.241Z,1000.61
2016-11-19T02:28:37.079Z,1000.59
2016-11-19T02:29:18.028Z,1000.58
2016-11-19T02:29:58.852Z,1000.56
2016-11-19T02:30:39.745Z,1000.54
2016-11-19T02:31:20.646Z,1000.55
2016-11-19T02:32:01.671Z,1000.55
2016-11-19T02:32:42.442Z,1000.5
2016-11-19T02:33:23.599Z,1000.44
2016-11-19T02:34:04.823Z,1000.48
2016-11-19T02:34:46.565Z,1000.49
2016-11-19T02:35:27.683Z,1000.49
2016-11-19T02:36:09.472Z,1000.46
2016-11-19T02:36:50.329Z,1000.44
2016-11-19T02:37:31.084Z,1000.48
2016-11-19T02:38:12.058Z,1000.44
2016-11-19T02:38:53.683Z,1000.44
2016-11-19T02:39:34.835Z,1000.44
2016-11-19T02:40:15.657Z,1000.48
2016-11-19T02:40:56.676Z,1000.45
2016-11-19T02:41:37.760Z,1000.46
2016-11-19T02:42:18.823Z,1000.43
2016-11-19T02:42:59.837Z,1000.43
2016-11-19T02:43:40.674Z,1000.38
2016-11-19T02:44:21.760Z,1000.4
2016-11-19T02:45:03.641Z,1000.37
2016-11-19T02:45:45.223Z,1000.37
2016-11-19T02:46:25.271Z,1000.4
2016-11-19T02:47:06.205Z,1000.4
2016-11-19T02:47:46.973Z,1000.39
2016-11-19T02:48:28.777Z,1000.36
2016-11-19T02:49:10.430Z,1000.41
2016-11-19T02:49:51.430Z,1000.34
2016-11-19T02:50:32.432Z,1000.34
2016-11-19T02:51:14.616Z,1000.34
2016-11-19T02:51:55.421Z,1000.34
2016-11-19T02:52:36.287Z,1000.36
2016-11-19T02:53:17.110Z,1000.37
2016-11-19T02:53:58.199Z,1000.42
2016-11-19T02:54:39.201Z,1000.37
2016-11-19T02:55:21.273Z,1000.4
2016-11-19T02:56:02.123Z,1000.41
2016-11-19T02:56:42.922Z,1000.42
2016-11-19T02:57:25.567Z,1000.41
2016-11-19T02:58:06.532Z,1000.45
2016-11-19T02:58:47.556Z,1000.42
2016-11-19T02:59:28.474Z,1000.45
2016-11-19T03:00:09.452Z,1000.46
2016-11-19T03:00:50.394Z,1000.41
2016-11-19T03:01:31.153Z,1000.47
2016-11-19T03:02:12.383Z,1000.47
2016-11-19T03:02:54.273Z,1000.44
2016-11-19T03:03:35.486Z,1000.49
2016-11-19T03:04:16.284Z,1000.4
2016-11-19T03:04:57.167Z,1000.37
2016-11-19T03:05:38.177Z,1000.4
2016-11-19T03:06:19.208Z,1000.4
2016-11-19T03:07:00.952Z,1000.37
2016-11-19T03:07:41.893Z,1000.36
2016-11-19T03:08:23.769Z,1000.34
2016-11-19T03:09:04.665Z,1000.31
2016-11-19T03:09:45.578Z,1000.3
2016-11-19T03:10:26.570Z,1000.3
2016-11-19T03:11:08.195Z,1000.3
2016-11-19T03:11:49.194Z,1000.25
2016-11-19T03:12:30.231Z,1000.27
2016-11-19T03:13:11.143Z,1000.22
2016-11-19T03:13:52.046Z,1000.24
2016-11-19T03:14:33.010Z,1000.24
2016-11-19T03:15:13.876Z,1000.22
2016-11-19T03:15:54.759Z,1000.28
2016-11-19T03:16:35.416Z,1000.25
2016-11-19T03:17:16.268Z,1000.22
2016-11-19T03:17:57.137Z,1000.27
2016-11-19T03:18:38.134Z,1000.23
2016-11-19T03:19:19.052Z,1000.26
2016-11-19T03:20:00.145Z,1000.33
2016-11-19T03:20:41.340Z,1000.31
2016-11-19T03:21:22.097Z,1000.24
2016-11-19T03:22:02.742Z,1000.33
2016-11-19T03:22:43.652Z,1000.34
2016-11-19T03:23:25.146Z,1000.34
2016-11-19T03:24:05.611Z,1000.28
2016-11-19T03:24:46.484Z,1000.28
2016-11-19T03:25:27.366Z,1000.29
2016-11-19T03:26:08.286Z,1000.25
2016-11-19T03:26:49.027Z,1000.26
2016-11-19T03:27:29.774Z,1000.22
2016-11-19T03:28:11.436Z,1000.24
2016-11-19T03:28:52.484Z,1000.25
2016-11-19T03:29:33.690Z,1000.18
2016-11-19T03:30:14.761Z,1000.21
2016-11-19T03:30:55.618Z,1000.25
2016-11-19T03:31:36.765Z,1000.26
2016-11-19T03:32:17.392Z,1000.24
2016-11-19T03:32:58.338Z,1000.16
2016-11-19T03:33:39.336Z,1000.16
2016-11-19T03:34:20.281Z,1000.15
2016-11-19T03:35:01.202Z,1000.17
2016-11-19T03:35:42.246Z,1000.19
2016-11-19T03:36:23.298Z,1000.16
2016-11-19T03:37:04.326Z,1000.15
2016-11-19T03:37:45.183Z,1000.19
2016-11-19T03:38:26.076Z,1000.15
2016-11-19T03:39:06.937Z,1000.17
2016-11-19T03:39:47.744Z,1000.15
2016-11-19T03:40:28.577Z,1000.14
2016-11-19T03:41:09.678Z,1000.18
2016-11-19T03:41:50.550Z,1000.14
2016-11-19T03:42:32.128Z,1000.13
2016-11-19T03:43:12.957Z,1000.1
2016-11-19T03:43:53.741Z,1000.09
2016-11-19T03:44:34.594Z,1000.05
2016-11-19T03:45:15.777Z,1000.05
2016-11-19T03:45:56.709Z,1000.06
2016-11-19T03:46:41.654Z,1000.06
2016-11-19T03:47:23.849Z,1000.05
2016-11-19T03:48:04.868Z,1000.09
2016-11-19T03:48:47.271Z,1000.11
2016-11-19T03:49:28.211Z,1000.11
2016-11-19T03:50:09.229Z,1000.1
2016-11-19T03:50:50.305Z,1000.13
2016-11-19T03:51:31.334Z,1000.08
2016-11-19T03:52:12.261Z,1000.11
2016-11-19T03:52:53.232Z,1000.09
2016-11-19T03:53:34.159Z,1000.05
2016-11-19T03:54:15.158Z,1000.06
2016-11-19T03:54:56.265Z,1000
2016-11-19T03:55:37.460Z,1000.01
2016-11-19T03:56:18.199Z,1000.01
2016-11-19T03:56:59.146Z,1000.04
2016-11-19T03:57:40.085Z,1000.06
2016-11-19T03:58:21.594Z,1000.08
2016-11-19T03:59:02.713Z,1000.06
2016-11-19T03:59:43.878Z,1000.14
2016-11-19T04:00:25.632Z,1000.06
2016-11-19T04:01:09.578Z,1000.13
2016-11-19T04:01:50.672Z,1000.11
2016-11-19T04:02:32.600Z,1000.12
2016-11-19T04:03:14.782Z,1000.11
2016-11-19T04:03:56.827Z,1000.17
2016-11-19T04:04:37.574Z,1000.2
2016-11-19T04:05:18.342Z,1000.2
2016-11-19T04:05:59.466Z,1000.21
2016-11-19T04:06:40.321Z,1000.21
2016-11-19T04:07:21.732Z,1000.21
2016-11-19T04:08:02.716Z,1000.15
2016-11-19T04:08:43.639Z,1000.23
2016-11-19T04:09:24.625Z,1000.21
2016-11-19T04:10:06.917Z,1000.19
2016-11-19T04:10:55.388Z,1000.19
2016-11-19T04:11:41.357Z,1000.16
2016-11-19T04:12:23.696Z,1000.17
2016-11-19T04:13:04.569Z,1000.19
2016-11-19T04:13:45.623Z,1000.17
2016-11-19T04:14:28.140Z,1000.13
2016-11-19T04:15:09.856Z,1000.14
2016-11-19T04:15:50.819Z,1000.18
2016-11-19T04:16:31.722Z,1000.21
2016-11-19T04:17:12.551Z,1000.17
2016-11-19T04:17:54.014Z,1000.3
2016-11-19T04:18:34.850Z,1000.23
2016-11-19T04:19:15.898Z,1000.29
2016-11-19T04:19:56.984Z,1000.27
2016-11-19T04:20:37.991Z,1000.29
2016-11-19T04:21:19.274Z,1000.33
2016-11-19T04:22:00.287Z,1000.31
2016-11-19T04:22:41.306Z,1000.29
2016-11-19T04:23:23.555Z,1000.29
2016-11-19T04:24:04.479Z,1000.29
2016-11-19T04:24:45.361Z,1000.27
2016-11-19T04:25:26.186Z,1000.31
2016-11-19T04:26:07.039Z,1000.33
2016-11-19T04:26:48.122Z,1000.3
2016-11-19T04:27:29.364Z,1000.37
2016-11-19T04:28:10.730Z,1000.34
2016-11-19T04:28:51.965Z,1000.32
2016-11-19T04:29:32.683Z,1000.39
2016-11-19T04:30:13.435Z,1000.36
2016-11-19T04:30:54.269Z,1000.39
2016-11-19T04:31:35.398Z,1000.39
2016-11-19T04:32:16.298Z,1000.36
2016-11-19T04:32:57.319Z,1000.35
2016-11-19T04:33:38.208Z,1000.41
2016-11-19T04:34:19.141Z,1000.34
2016-11-19T04:35:00.044Z,1000.39
2016-11-19T04:35:40.888Z,1000.35
2016-11-19T04:36:21.816Z,1000.37
2016-11-19T04:37:02.648Z,1000.36
2016-11-19T04:37:43.616Z,1000.41
2016-11-19T04:38:25.065Z,1000.43
2016-11-19T04:39:06.163Z,1000.41
2016-11-19T04:39:47.323Z,1000.46
2016-11-19T04:40:28.387Z,1000.44
2016-11-19T04:41:09.327Z,1000.45
2016-11-19T04:41:51.573Z,1000.46
2016-11-19T04:42:32.560Z,1000.47
2016-11-19T04:43:13.578Z,1000.45
2016-11-19T04:43:54.767Z,1000.42
2016-11-19T04:44:35.780Z,1000.47
2016-11-19T04:45:16.949Z,1000.47
2016-11-19T04:46:00.780Z,1000.5
2016-11-19T04:46:41.677Z,1000.54
2016-11-19T04:47:22.477Z,1000.5
2016-11-19T04:48:03.325Z,1000.44
2016-11-19T04:48:44.840Z,1000.44
2016-11-19T04:49:25.720Z,1000.44
2016-11-19T04:50:06.773Z,1000.43
2016-11-19T04:50:47.704Z,1000.45
2016-11-19T04:51:28.761Z,1000.4
2016-11-19T04:52:11.163Z,1000.39
2016-11-19T04:52:51.318Z,1000.41
2016-11-19T04:53:32.238Z,1000.43
2016-11-19T04:54:13.208Z,1000.44
2016-11-19T04:54:54.268Z,1000.42
2016-11-19T04:55:40.406Z,1000.47
2016-11-19T04:56:22.759Z,1000.43
2016-11-19T04:57:04.314Z,1000.39
2016-11-19T04:57:45.230Z,1000.38
2016-11-19T04:58:26.135Z,1000.4
2016-11-19T04:59:08.330Z,1000.41
2016-11-19T04:59:49.045Z,1000.38
2016-11-19T05:00:30.027Z,1000.37
2016-11-19T05:01:10.992Z,1000.36
2016-11-19T05:01:51.792Z,1000.41
2016-11-19T05:02:32.810Z,1000.44
2016-11-19T05:03:13.937Z,1000.41
2016-11-19T05:03:54.973Z,1000.37
2016-11-19T05:04:35.793Z,1000.42
2016-11-19T05:05:16.740Z,1000.35
2016-11-19T05:05:57.415Z,1000.4
2016-11-19T05:06:38.235Z,1000.38
2016-11-19T05:07:19.083Z,1000.45
2016-11-19T05:07:59.863Z,1000.45
2016-11-19T05:08:40.758Z,1000.44
2016-11-19T05:09:21.644Z,1000.42
2016-11-19T05:10:02.528Z,1000.37
2016-11-19T05:10:43.656Z,1000.43
2016-11-19T05:11:24.528Z,1000.41
2016-11-19T05:12:05.983Z,1000.44
2016-11-19T05:12:47.641Z,1000.49
2016-11-19T05:13:28.470Z,1000.44
2016-11-19T05:14:09.290Z,1000.44
2016-11-19T05:14:50.480Z,1000.47
2016-11-19T05:15:31.222Z,1000.46
2016-11-19T05:16:12.082Z,1000.46
2016-11-19T05:16:53.063Z,1000.49
2016-11-19T05:17:34.149Z,1000.45
2016-11-19T05:18:15.051Z,1000.47
2016-11-19T05:18:56.134Z,1000.43
2016-11-19T05:19:37.120Z,1000.44
2016-11-19T05:20:17.902Z,1000.44
2016-11-19T05:20:58.919Z,1000.46
2016-11-19T05:21:40.526Z,1000.44
2016-11-19T05:22:25.506Z,1000.48
2016-11-19T05:23:06.396Z,1000.48
2016-11-19T05:23:47.485Z,1000.52
2016-11-19T05:24:28.676Z,1000.5
2016-11-19T05:25:09.632Z,1000.47
2016-11-19T05:25:50.542Z,1000.48
2016-11-19T05:26:31.267Z,1000.55
2016-11-19T05:27:12.551Z,1000.5
2016-11-19T05:27:53.826Z,1000.54
2016-11-19T05:28:34.798Z,1000.5
2016-11-19T05:29:15.632Z,1000.46
2016-11-19T05:29:56.424Z,1000.51
2016-11-19T05:30:37.398Z,1000.51
2016-11-19T05:31:18.305Z,1000.47
2016-11-19T05:31:59.087Z,1000.49
2016-11-19T05:32:40.111Z,1000.48
2016-11-19T05:33:20.920Z,1000.51
2016-11-19T05:34:01.833Z,1000.51
2016-11-19T05:34:42.674Z,1000.48
2016-11-19T05:35:23.550Z,1000.5
2016-11-19T05:36:04.333Z,1000.52
2016-11-19T05:36:45.480Z,1000.49
2016-11-19T05:37:26.560Z,1000.57
2016-11-19T05:38:08.782Z,1000.5
2016-11-19T05:38:51.627Z,1000.48
2016-11-19T05:39:33.649Z,1000.56
2016-11-19T05:40:14.298Z,1000.55
2016-11-19T05:40:58.082Z,1000.62
2016-11-19T05:41:39.193Z,1000.6
2016-11-19T05:42:20.225Z,1000.61
2016-11-19T05:43:00.972Z,1000.63
2016-11-19T05:43:41.917Z,1000.6
2016-11-19T05:44:22.776Z,1000.61
2016-11-19T05:45:03.609Z,1000.59
2016-11-19T05:45:45.296Z,1000.59
2016-11-19T05:46:27.260Z,1000.61
2016-11-19T05:47:08.155Z,1000.57
2016-11-19T05:47:49.070Z,1000.58
2016-11-19T05:48:29.899Z,1000.58
2016-11-19T05:49:10.851Z,1000.59
2016-11-19T05:49:53.520Z,1000.53
2016-11-19T05:50:34.538Z,1000.48
2016-11-19T05:51:16.407Z,1000.52
2016-11-19T05:51:57.515Z,1000.5
2016-11-19T05:52:38.547Z,1000.53
2016-11-19T05:53:20.145Z,1000.53
2016-11-19T05:54:01.214Z,1000.53
2016-11-19T05:54:42.152Z,1000.49
2016-11-19T05:55:23.132Z,1000.52
2016-11-19T05:56:04.962Z,1000.51
2016-11-19T05:56:46.940Z,1000.51
2016-11-19T05:57:27.853Z,1000.53
2016-11-19T05:58:08.705Z,1000.56
2016-11-19T05:58:49.581Z,1000.58
2016-11-19T05:59:30.427Z,1000.59
2016-11-19T06:00:11.244Z,1000.55
2016-11-19T06:00:52.094Z,1000.51
2016-11-19T06:01:32.975Z,1000.58
2016-11-19T06:02:13.776Z,1000.57
2016-11-19T06:02:54.487Z,1000.57
2016-11-19T06:03:35.341Z,1000.53
2016-11-19T06:04:16.082Z,1000.59
2016-11-19T06:04:57.043Z,1000.58
2016-11-19T06:05:38.026Z,1000.54
2016-11-19T06:06:20.064Z,1000.5
2016-11-19T06:07:01.081Z,1000.54
2016-11-19T06:07:43.598Z,1000.55
2016-11-19T06:08:26.905Z,1000.54
2016-11-19T06:09:07.756Z,1000.46
2016-11-19T06:09:48.710Z,1000.5
2016-11-19T06:10:29.654Z,1000.46
2016-11-19T06:11:11.533Z,1000.37
2016-11-19T06:11:52.368Z,1000.45
2016-11-19T06:12:33.229Z,1000.46
2016-11-19T06:13:14.011Z,1000.45
2016-11-19T06:13:55.112Z,1000.4
2016-11-19T06:14:36.135Z,1000.41
2016-11-19T06:15:16.943Z,1000.4
2016-11-19T06:15:58.028Z,1000.38
2016-11-19T06:16:39.097Z,1000.36
2016-11-19T06:17:21.849Z,1000.47
2016-11-19T06:18:04.699Z,1000.44
2016-11-19T06:18:45.480Z,1000.42
2016-11-19T06:19:26.367Z,1000.49
2016-11-19T06:20:07.418Z,1000.42
2016-11-19T06:20:48.294Z,1000.42
2016-11-19T06:21:29.095Z,1000.49
2016-11-19T06:22:10.019Z,1000.48
2016-11-19T06:22:50.832Z,1000.48
2016-11-19T06:23:31.547Z,1000.52
2016-11-19T06:24:12.429Z,1000.48
2016-11-19T06:24:53.411Z,1000.52
2016-11-19T06:25:34.492Z,1000.55
2016-11-19T06:26:15.343Z,1000.53
2016-11-19T06:26:58.821Z,1000.53
2016-11-19T06:27:44.838Z,1000.58
2016-11-19T06:28:26.493Z,1000.56
2016-11-19T06:29:13.643Z,1000.55
2016-11-19T06:29:54.794Z,1000.56
2016-11-19T06:30:37.320Z,1000.53
2016-11-19T06:31:18.239Z,1000.54
2016-11-19T06:31:58.926Z,1000.54
2016-11-19T06:32:39.927Z,1000.55
2016-11-19T06:33:20.756Z,1000.56
2016-11-19T06:34:01.664Z,1000.6
2016-11-19T06:34:43.306Z,1000.59
2016-11-19T06:35:24.160Z,1000.66
2016-11-19T06:36:05.138Z,1000.63
2016-11-19T06:36:45.996Z,1000.64
2016-11-19T06:37:26.748Z,1000.69
2016-11-19T06:38:07.828Z,1000.71
2016-11-19T06:38:48.873Z,1000.73
2016-11-19T06:39:29.902Z,1000.79
2016-11-19T06:40:10.883Z,1000.72
2016-11-19T06:40:52.143Z,1000.78
2016-11-19T06:41:40.435Z,1000.81
2016-11-19T06:42:22.137Z,1000.87
2016-11-19T06:43:05.744Z,1000.86
2016-11-19T06:43:46.764Z,1000.83
2016-11-19T06:44:27.566Z,1000.84
2016-11-19T06:45:08.804Z,1000.85
2016-11-19T06:45:49.784Z,1000.85
2016-11-19T06:46:30.716Z,1000.85
2016-11-19T06:47:11.479Z,1000.93
2016-11-19T06:47:52.416Z,1000.91
2016-11-19T06:48:33.338Z,1000.88
2016-11-19T06:49:14.546Z,1000.92
2016-11-19T06:49:55.540Z,1000.86
2016-11-19T06:50:36.539Z,1000.97
2016-11-19T06:51:17.430Z,1000.93
2016-11-19T06:52:03.408Z,1000.97
2016-11-19T06:52:44.435Z,1000.92
2016-11-19T06:53:25.308Z,1000.9
2016-11-19T06:54:06.343Z,1000.9
2016-11-19T06:54:48.613Z,1000.93
2016-11-19T06:55:29.676Z,1000.94
2016-11-19T06:56:10.754Z,1000.92
2016-11-19T06:56:51.627Z,1000.9
2016-11-19T06:57:32.598Z,1000.92
2016-11-19T06:58:13.743Z,1000.94
2016-11-19T06:58:54.800Z,1000.91
2016-11-19T06:59:36.531Z,1000.97
2016-11-19T07:00:17.485Z,1000.98
2016-11-19T07:00:58.519Z,1001.01
2016-11-19T07:01:39.379Z,1000.97
2016-11-19T07:02:20.461Z,1000.95
2016-11-19T07:03:02.836Z,1000.95
2016-11-19T07:03:44.534Z,1000.92
2016-11-19T07:04:25.561Z,1000.88
2016-11-19T07:05:06.654Z,1000.9
2016-11-19T07:05:47.333Z,1000.83
2016-11-19T07:06:28.422Z,1000.85
2016-11-19T07:07:09.272Z,1000.86
2016-11-19T07:07:50.132Z,1000.85
2016-11-19T07:08:31.275Z,1000.88
2016-11-19T07:09:12.125Z,1000.87
2016-11-19T07:09:52.974Z,1000.95
2016-11-19T07:10:34.926Z,1000.96
2016-11-19T07:11:16.676Z,1001.02
2016-11-19T07:11:57.949Z,1001.08
2016-11-19T07:12:38.640Z,1001.15
2016-11-19T07:13:19.584Z,1001.15
2016-11-19T07:14:00.671Z,1001.19
2016-11-19T07:14:41.606Z,1001.18
2016-11-19T07:15:22.756Z,1001.21
2016-11-19T07:16:03.737Z,1001.21
2016-11-19T07:16:44.600Z,1001.16
2016-11-19T07:17:26.585Z,1001.14
2016-11-19T07:18:07.527Z,1001.16
2016-11-19T07:18:48.551Z,1001.15
2016-11-19T07:19:29.592Z,1001.21
2016-11-19T07:20:10.731Z,1001.13
2016-11-19T07:20:51.520Z,1001.15
2016-11-19T07:21:32.799Z,1001.13
2016-11-19T07:22:13.632Z,1001.11
2016-11-19T07:22:54.708Z,1001.14
2016-11-19T07:23:35.627Z,1001.1
2016-11-19T07:24:16.554Z,1001.12
2016-11-19T07:24:57.734Z,1001.15
2016-11-19T07:25:38.840Z,1001.15
2016-11-19T07:26:19.903Z,1001.15
2016-11-19T07:27:00.762Z,1001.1
2016-11-19T07:27:41.524Z,1001.11
2016-11-19T07:28:22.451Z,1001.11
2016-11-19T07:29:03.889Z,1001.06
2016-11-19T07:29:45.286Z,1001.09
2016-11-19T07:30:26.213Z,1001.04
2016-11-19T07:31:07.404Z,1001.05
2016-11-19T07:31:48.610Z,1001.09
2016-11-19T07:32:29.977Z,1001.02
2016-11-19T07:33:11.184Z,1001
2016-11-19T07:33:52.397Z,1001.05
2016-11-19T07:34:33.289Z,1001.04
2016-11-19T07:35:15.024Z,1001.05
2016-11-19T07:35:56.095Z,1001.06
2016-11-19T07:36:37.270Z,1001.1
2016-11-19T07:37:18.995Z,1001.1
2016-11-19T07:38:00.231Z,1001.1
2016-11-19T07:38:41.334Z,1001.13
2016-11-19T07:39:22.732Z,1001.13
2016-11-19T07:40:03.968Z,1001.15
2016-11-19T07:40:54.281Z,1001.12
2016-11-19T07:41:35.355Z,1001.16
2016-11-19T07:42:16.380Z,1001.16
2016-11-19T07:42:57.252Z,1001.17
2016-11-19T07:43:38.076Z,1001.23
2016-11-19T07:44:18.970Z,1001.21
2016-11-19T07:44:59.896Z,1001.17
2016-11-19T07:45:40.739Z,1001.17
2016-11-19T07:46:21.610Z,1001.13
2016-11-19T07:47:02.436Z,1001.13
2016-11-19T07:47:43.307Z,1001.15
2016-11-19T07:48:24.428Z,1001.16
2016-11-19T07:49:06.077Z,1001.17
2016-11-19T07:49:47.073Z,1001.12
2016-11-19T07:50:29.910Z,1001.12
2016-11-19T07:51:11.019Z,1001.13
2016-11-19T07:51:52.929Z,1001.1
2016-11-19T07:52:33.844Z,1001.08
2016-11-19T07:53:14.844Z,1001.09
2016-11-19T07:53:56.190Z,1001.09
2016-11-19T07:54:37.178Z,1001.07
2016-11-19T07:55:18.085Z,1001.04
2016-11-19T07:55:59.271Z,1001.06
2016-11-19T07:56:40.985Z,1001.04
2016-11-19T07:57:21.945Z,1001.05
2016-11-19T07:58:03.793Z,1001.03
2016-11-19T07:58:45.654Z,1001.03
2016-11-19T07:59:27.743Z,1001.06
2016-11-19T08:00:10.467Z,1001.04
2016-11-19T08:00:52.213Z,1001.07
2016-11-19T08:01:33.212Z,1001.06
2016-11-19T08:02:14.473Z,1001.08
2016-11-19T08:02:55.509Z,1001.15
2016-11-19T08:03:36.640Z,1001.12
2016-11-19T08:04:17.587Z,1001.11
2016-11-19T08:04:58.394Z,1001.1
2016-11-19T08:05:39.745Z,1001.16
2016-11-19T08:06:20.879Z,1001.23
2016-11-19T08:07:01.925Z,1001.22
2016-11-19T08:07:42.764Z,1001.18
2016-11-19T08:08:23.533Z,1001.22
2016-11-19T08:09:04.501Z,1001.25
2016-11-19T08:09:45.345Z,1001.2
2016-11-19T08:10:26.145Z,1001.23
2016-11-19T08:11:07.715Z,1001.22
2016-11-19T08:11:52.173Z,1001.23
2016-11-19T08:12:34.138Z,1001.27
2016-11-19T08:13:14.246Z,1001.23
2016-11-19T08:13:55.011Z,1001.22
2016-11-19T08:14:36.065Z,1001.22
2016-11-19T08:15:17.175Z,1001.23
2016-11-19T08:15:58.038Z,1001.25
2016-11-19T08:16:38.908Z,1001.22
2016-11-19T08:17:21.627Z,1001.24
2016-11-19T08:18:02.613Z,1001.24
2016-11-19T08:18:43.596Z,1001.21
2016-11-19T08:19:24.566Z,1001.19
2016-11-19T08:20:05.461Z,1001.14
2016-11-19T08:20:46.289Z,1001.05
2016-11-19T08:21:27.351Z,1001.08
2016-11-19T08:22:08.270Z,1001.12
2016-11-19T08:22:49.947Z,1001.16
2016-11-19T08:23:30.920Z,1001.13
2016-11-19T08:24:11.703Z,1001.16
2016-11-19T08:24:52.667Z,1001.11
2016-11-19T08:25:33.541Z,1001.23
2016-11-19T08:27:26.283Z,1001.28